createdAt,value
2022-10-28T00:00:29.476Z,23.92
2022-10-28T00:03:54.685Z,22.38
2022-10-28T00:07:17.336Z,20.20
2022-10-28T00:10:41.787Z,21.42
2022-10-28T00:14:06.947Z,21.95
2022-10-28T00:17:29.910Z,22.35
2022-10-28T00:20:52.564Z,20.77
2022-10-28T00:24:16.441Z,27.30
2022-10-28T00:27:40.946Z,22.65
2022-10-28T00:31:11.576Z,23.77
2022-10-28T00:34:34.643Z,24.95
2022-10-28T00:37:57.397Z,20.60
2022-10-28T00:41:21.790Z,23.85
2022-10-28T00:45:00.721Z,21.08
2022-10-28T00:48:23.473Z,24.65
2022-10-28T00:51:48.584Z,19.08
2022-10-28T00:55:11.954Z,23.25
2022-10-28T00:58:35.228Z,22.58
2022-10-28T01:02:00.156Z,18.15
2022-10-28T01:05:28.008Z,17.10
2022-10-28T01:08:50.559Z,22.33
2022-10-28T01:12:23.960Z,19.00
2022-10-28T01:15:52.654Z,19.90
2022-10-28T01:19:48.174Z,20.00
2022-10-28T01:23:17.996Z,17.17
2022-10-28T01:27:24.816Z,20.58
2022-10-28T01:31:18.162Z,22.40
2022-10-28T01:34:50.849Z,17.67
2022-10-28T01:38:30.603Z,21.63
2022-10-28T01:42:00.733Z,17.67
2022-10-28T01:45:29.937Z,20.23
2022-10-28T01:52:24.147Z,16.52
2022-10-28T01:55:51.828Z,19.77
2022-10-28T01:59:18.465Z,18.40
2022-10-28T02:02:43.373Z,17.48
2022-10-28T02:06:16.363Z,19.23
2022-10-28T02:09:57.245Z,17.35
2022-10-28T02:13:23.838Z,23.40
2022-10-28T02:16:51.668Z,21.73
2022-10-28T02:20:21.996Z,19.58
2022-10-28T02:23:50.695Z,19.98
2022-10-28T02:27:23.280Z,21.83
2022-10-28T02:30:51.974Z,20.90
2022-10-28T02:34:19.752Z,19.70
2022-10-28T02:37:44.244Z,19.90
2022-10-28T02:41:12.628Z,19.50
2022-10-28T02:44:41.014Z,24.42
2022-10-28T02:48:09.101Z,19.75
2022-10-28T02:51:36.665Z,20.55
2022-10-28T02:55:00.962Z,17.42
2022-10-28T02:58:26.064Z,18.42
2022-10-28T03:01:49.122Z,17.02
2022-10-28T03:05:12.393Z,21.40
2022-10-28T03:08:34.861Z,17.88
2022-10-28T03:11:57.598Z,18.75
2022-10-28T03:15:21.790Z,21.10
2022-10-28T03:18:44.747Z,18.48
2022-10-28T03:22:07.707Z,21.10
2022-10-28T03:25:30.982Z,18.52
2022-10-28T03:28:54.035Z,16.67
2022-10-28T03:32:18.788Z,19.38
2022-10-28T03:35:41.795Z,21.50
2022-10-28T03:39:05.063Z,21.63
2022-10-28T03:42:28.741Z,21.85
2022-10-28T03:45:51.925Z,19.33
2022-10-28T03:49:16.198Z,21.55
2022-10-28T03:52:39.165Z,22.13
2022-10-28T03:56:03.449Z,19.10
2022-10-28T03:59:27.059Z,23.60
2022-10-28T04:02:53.188Z,22.10
2022-10-28T04:06:18.055Z,20.95
2022-10-28T04:09:42.073Z,19.10
2022-10-28T04:13:07.060Z,23.95
2022-10-28T04:16:29.808Z,22.92
2022-10-28T04:19:52.774Z,20.10
2022-10-28T04:23:18.707Z,22.25
2022-10-28T04:26:41.661Z,25.58
2022-10-28T04:30:05.546Z,23.83
2022-10-28T04:33:28.608Z,20.08
2022-10-28T04:36:51.464Z,21.52
2022-10-28T04:40:16.166Z,18.90
2022-10-28T04:43:38.817Z,27.77
2022-10-28T04:47:01.428Z,23.83
2022-10-28T04:50:24.223Z,21.73
2022-10-28T04:53:47.589Z,22.02
2022-10-28T04:57:12.088Z,21.52
2022-10-28T05:00:34.652Z,25.33
2022-10-28T05:03:57.389Z,25.02
2022-10-28T05:07:22.759Z,21.33
2022-10-28T05:10:50.375Z,20.83
2022-10-28T05:14:14.980Z,24.40
2022-10-28T05:17:37.889Z,21.38
2022-10-28T05:21:01.107Z,19.85
2022-10-28T05:24:26.622Z,21.60
2022-10-28T05:27:49.683Z,21.88
2022-10-28T05:31:13.950Z,25.52
2022-10-28T05:34:36.909Z,18.50
2022-10-28T05:38:00.108Z,20.50
2022-10-28T05:41:23.426Z,20.95
2022-10-28T05:44:46.124Z,19.90
2022-10-28T05:48:11.339Z,17.55
2022-10-28T05:51:34.394Z,17.92
2022-10-28T05:54:59.915Z,14.45
2022-10-28T05:58:22.779Z,14.90
2022-10-28T06:01:45.903Z,16.50
2022-10-28T06:05:11.256Z,15.63
2022-10-28T06:08:34.108Z,13.82
2022-10-28T06:11:55.127Z,14.63
2022-10-28T06:15:18.294Z,12.25
2022-10-28T06:18:40.956Z,14.02
2022-10-28T06:22:05.348Z,11.35
2022-10-28T06:25:28.613Z,13.93
2022-10-28T06:28:52.600Z,17.15
2022-10-28T06:32:15.372Z,13.75
2022-10-28T06:35:39.962Z,14.40
2022-10-28T06:39:05.180Z,14.60
2022-10-28T06:42:27.737Z,13.75
2022-10-28T06:45:54.432Z,14.80
2022-10-28T06:49:18.853Z,25.65
2022-10-28T06:52:41.553Z,13.48
2022-10-28T06:56:06.928Z,14.60
2022-10-28T06:59:29.789Z,12.60
2022-10-28T07:02:53.003Z,13.32
2022-10-28T07:06:17.177Z,10.73
2022-10-28T07:09:40.110Z,10.30
2022-10-28T07:13:04.101Z,10.55
2022-10-28T07:16:27.163Z,11.55
2022-10-28T07:19:50.536Z,9.48
2022-10-28T07:23:13.911Z,8.82
2022-10-28T07:26:36.666Z,10.38
2022-10-28T07:30:01.000Z,10.88
2022-10-28T07:33:24.125Z,10.18
2022-10-28T07:36:47.400Z,12.73
2022-10-28T07:40:12.007Z,11.00
2022-10-28T07:43:39.150Z,8.07
2022-10-28T07:47:03.543Z,8.18
2022-10-28T07:50:29.878Z,7.28
2022-10-28T07:53:52.856Z,6.20
2022-10-28T07:57:15.599Z,7.20
2022-10-28T08:00:38.630Z,7.40
2022-10-28T08:04:03.349Z,7.15
2022-10-28T08:07:25.896Z,6.90
2022-10-28T08:10:48.431Z,6.55
2022-10-28T08:14:11.188Z,6.60
2022-10-28T08:17:33.932Z,6.30
2022-10-28T08:24:29.189Z,7.63
2022-10-28T08:27:52.126Z,7.90
2022-10-28T08:31:15.291Z,9.27
2022-10-28T08:34:40.945Z,10.15
2022-10-28T08:38:08.477Z,7.28
2022-10-28T08:41:37.376Z,9.30
2022-10-28T08:45:25.752Z,10.88
2022-10-28T08:48:48.592Z,7.82
2022-10-28T08:52:25.178Z,8.48
2022-10-28T08:55:52.643Z,7.63
2022-10-28T08:59:20.996Z,7.20
2022-10-28T09:02:57.667Z,7.43
2022-10-28T09:06:20.983Z,6.30
2022-10-28T09:09:43.530Z,7.78
2022-10-28T09:13:19.901Z,7.70
2022-10-28T09:16:48.593Z,9.48
2022-10-28T09:27:58.506Z,7.15
2022-10-28T09:31:32.320Z,6.60
2022-10-28T09:35:01.841Z,9.15
2022-10-28T09:38:29.199Z,14.77
2022-10-28T09:45:40.718Z,8.40
2022-10-28T09:53:01.051Z,9.85
2022-10-28T10:00:04.559Z,8.60
2022-10-28T10:03:27.643Z,9.70
2022-10-28T10:06:57.053Z,7.93
2022-10-28T10:14:10.111Z,7.70
2022-10-28T10:17:41.267Z,7.28
2022-10-28T10:21:04.532Z,8.52
2022-10-28T10:24:32.927Z,8.32
2022-10-28T10:28:02.839Z,6.97
2022-10-28T10:31:30.161Z,5.78
2022-10-28T10:34:59.307Z,6.20
2022-10-28T10:42:16.771Z,6.65
2022-10-28T10:45:40.031Z,8.23
2022-10-28T10:49:16.099Z,6.65
2022-10-28T10:52:39.060Z,6.93
2022-10-28T10:56:04.170Z,7.70
2022-10-28T10:59:32.461Z,6.43
2022-10-28T11:06:39.882Z,7.40
2022-10-28T11:10:03.864Z,8.82
2022-10-28T11:18:22.972Z,7.60
2022-10-28T11:22:00.492Z,7.90
2022-10-28T11:29:18.035Z,5.65
2022-10-28T11:33:02.173Z,5.38
2022-10-28T11:40:33.989Z,8.98
2022-10-28T11:44:04.712Z,4.85
2022-10-28T11:47:56.334Z,7.45
2022-10-28T11:51:33.247Z,6.47
2022-10-28T12:03:03.323Z,6.63
2022-10-28T12:06:38.277Z,8.07
2022-10-28T12:10:35.225Z,13.40
2022-10-28T12:14:07.091Z,11.57
2022-10-28T12:17:38.872Z,8.35
2022-10-28T12:24:50.139Z,6.28
2022-10-28T12:28:22.011Z,7.20
2022-10-28T12:35:37.049Z,8.32
2022-10-28T12:39:04.730Z,7.90
2022-10-28T12:42:34.537Z,6.22
2022-10-28T12:49:51.796Z,9.35
2022-10-28T12:53:33.492Z,7.65
2022-10-28T12:57:05.359Z,7.07
2022-10-28T13:00:31.495Z,8.52
2022-10-28T13:03:56.298Z,9.77
2022-10-28T13:07:35.344Z,11.02
2022-10-28T13:14:55.198Z,11.40
2022-10-28T13:18:45.051Z,11.45
2022-10-28T13:22:35.859Z,13.00
2022-10-28T13:26:06.915Z,9.63
2022-10-28T13:29:33.176Z,8.90
2022-10-28T13:33:07.160Z,16.58
2022-10-28T13:40:45.254Z,7.22
2022-10-28T13:44:31.101Z,7.22
2022-10-28T13:47:54.219Z,8.10
2022-10-28T13:51:33.914Z,10.30
2022-10-28T13:54:59.331Z,9.55
2022-10-28T14:02:34.740Z,14.57
2022-10-28T14:09:43.568Z,12.68
2022-10-28T14:16:57.340Z,14.27
2022-10-28T14:24:16.750Z,6.82
2022-10-28T14:27:44.681Z,11.05
2022-10-28T14:31:36.149Z,16.35
2022-10-28T14:39:19.421Z,14.50
2022-10-28T14:50:48.679Z,16.05
2022-10-28T14:54:17.478Z,13.90
2022-10-28T14:57:40.434Z,19.58
2022-10-28T15:01:22.264Z,21.52
2022-10-28T15:04:47.660Z,12.93
2022-10-28T15:15:37.702Z,10.68
2022-10-28T15:19:00.971Z,10.98
2022-10-28T15:22:25.153Z,10.75
2022-10-28T15:25:47.910Z,13.65
2022-10-28T15:29:14.150Z,10.68
2022-10-28T15:32:37.627Z,8.82
2022-10-28T15:36:18.269Z,14.45
2022-10-28T15:39:41.661Z,10.93
2022-10-28T15:43:06.521Z,8.35
2022-10-28T15:46:32.909Z,9.50
2022-10-28T15:50:22.178Z,10.50
2022-10-28T15:53:45.863Z,14.13
2022-10-28T15:57:24.699Z,13.73
2022-10-28T16:04:45.946Z,12.68
2022-10-28T16:08:16.589Z,14.60
2022-10-28T16:11:44.558Z,12.93
2022-10-28T16:15:15.511Z,22.17
2022-10-28T16:22:29.793Z,33.75
2022-10-28T16:25:52.549Z,19.45
2022-10-28T16:36:35.319Z,66.57
2022-10-28T16:40:00.016Z,49.50
2022-10-28T16:43:24.834Z,40.75
2022-10-28T16:46:50.356Z,48.47
2022-10-28T16:50:14.331Z,48.60
2022-10-28T16:53:37.193Z,38.67
2022-10-28T16:57:01.376Z,52.45
2022-10-28T17:00:24.539Z,33.28
2022-10-28T17:03:47.396Z,23.92
2022-10-28T17:07:15.476Z,14.43
2022-10-28T17:14:21.779Z,18.23
2022-10-28T17:21:27.977Z,65.95
2022-10-28T17:24:51.039Z,61.30
2022-10-28T17:28:14.405Z,35.58
2022-10-28T17:31:41.260Z,36.78
2022-10-28T17:35:04.219Z,44.20
2022-10-28T17:42:07.030Z,68.25
2022-10-28T17:45:29.679Z,41.45
2022-10-28T17:48:53.986Z,26.65
2022-10-28T17:55:59.974Z,21.50
2022-10-28T17:59:22.621Z,12.13
2022-10-28T18:06:28.298Z,29.00
2022-10-28T18:09:51.980Z,35.50
2022-10-28T18:16:55.199Z,40.50
2022-10-28T18:20:18.063Z,46.67
2022-10-28T18:23:42.971Z,25.30
2022-10-28T18:27:07.064Z,33.58
2022-10-28T18:30:30.120Z,17.40
2022-10-28T18:33:52.666Z,11.68
2022-10-28T18:37:17.227Z,15.88
2022-10-28T18:40:49.333Z,19.02
2022-10-28T18:44:14.757Z,13.70
2022-10-28T18:47:37.918Z,10.48
2022-10-28T18:51:02.106Z,10.05
2022-10-28T18:54:24.963Z,10.77
2022-10-28T18:57:51.921Z,11.18
2022-10-28T19:01:16.442Z,9.05
2022-10-28T19:04:39.586Z,9.63
2022-10-28T19:08:02.743Z,11.13
2022-10-28T19:11:30.433Z,11.52
2022-10-28T19:14:54.395Z,9.40
2022-10-28T19:18:19.343Z,14.95
2022-10-28T19:21:42.577Z,12.43
2022-10-28T19:28:47.944Z,12.80
2022-10-28T19:35:52.198Z,16.02
2022-10-28T19:39:14.649Z,13.82
2022-10-28T19:42:38.784Z,16.27
2022-10-28T19:46:06.398Z,13.15
2022-10-28T19:49:37.261Z,14.10
2022-10-28T19:53:02.051Z,12.27
2022-10-28T19:56:25.011Z,15.45
2022-10-28T20:03:34.320Z,13.65
2022-10-28T20:07:00.725Z,18.70
2022-10-28T20:10:29.214Z,14.55
2022-10-28T20:17:34.788Z,15.75
2022-10-28T20:20:57.751Z,17.58
2022-10-28T20:24:22.250Z,15.73
2022-10-28T20:27:45.208Z,17.42
2022-10-28T20:31:09.092Z,18.33
2022-10-28T20:34:32.667Z,21.05
2022-10-28T20:37:56.002Z,22.20
2022-10-28T20:41:20.216Z,21.65
2022-10-28T20:48:24.267Z,20.25
2022-10-28T20:51:47.021Z,25.27
2022-10-28T20:55:10.595Z,24.67
2022-10-28T20:58:36.832Z,22.90
2022-10-28T21:01:59.901Z,22.50
2022-10-28T21:05:22.648Z,29.13
2022-10-28T21:08:46.429Z,23.98
2022-10-28T21:12:09.697Z,24.73
2022-10-28T21:15:36.447Z,20.33
2022-10-28T21:19:00.698Z,29.05
2022-10-28T21:22:23.905Z,24.30
2022-10-28T21:25:54.740Z,22.33
2022-10-28T21:29:17.699Z,22.48
2022-10-28T21:32:42.194Z,18.92
2022-10-28T21:36:07.409Z,16.73
2022-10-28T21:39:30.887Z,22.08
2022-10-28T21:42:54.147Z,20.95
2022-10-28T21:57:20.469Z,23.38
2022-10-28T22:00:44.144Z,21.80
2022-10-28T22:04:07.930Z,25.98
2022-10-28T22:11:14.846Z,21.65
2022-10-28T22:14:37.594Z,27.27
2022-10-28T22:18:00.957Z,31.60
2022-10-28T22:21:25.048Z,25.73
2022-10-28T22:24:49.132Z,21.08
2022-10-28T22:35:32.209Z,24.52
2022-10-28T22:38:55.321Z,22.30
2022-10-28T22:42:19.876Z,23.42
2022-10-28T22:45:42.829Z,25.08
2022-10-28T22:49:06.509Z,29.15
2022-10-28T22:52:29.322Z,27.00
2022-10-28T22:55:54.073Z,27.50
2022-10-28T22:59:18.458Z,24.45
2022-10-28T23:02:41.408Z,20.35
2022-10-28T23:06:04.276Z,21.40
2022-10-28T23:09:26.934Z,19.92
2022-10-28T23:20:12.580Z,18.45
2022-10-28T23:23:35.338Z,27.02
2022-10-28T23:30:25.448Z,18.73
2022-10-28T23:33:50.560Z,15.48
2022-10-28T23:37:13.313Z,14.63
2022-10-28T23:40:35.971Z,20.83
2022-10-28T23:44:01.079Z,17.30
2022-10-28T23:51:06.363Z,22.80
2022-10-28T23:58:09.269Z,24.63
